sensor_id;sensor_type;location;lat;lon;timestamp;pressure;altitude;pressure_sealevel;temperature;humidity
37078;BME280;22989;55.998;37.212;2022-07-29T00:00:49;99039.00;;;14.74;84.25
37078;BME280;22989;55.998;37.212;2022-07-29T00:03:15;99039.94;;;14.70;84.56
37078;BME280;22989;55.998;37.212;2022-07-29T00:05:41;99043.44;;;14.67;84.47
37078;BME280;22989;55.998;37.212;2022-07-29T00:08:08;99047.81;;;14.62;84.51
37078;BME280;22989;55.998;37.212;2022-07-29T00:10:34;99047.88;;;14.59;84.57
37078;BME280;22989;55.998;37.212;2022-07-29T00:13:00;99049.78;;;14.51;84.62
37078;BME280;22989;55.998;37.212;2022-07-29T00:15:27;99048.13;;;14.47;84.75
37078;BME280;22989;55.998;37.212;2022-07-29T00:17:52;99046.47;;;14.42;84.83
37078;BME280;22989;55.998;37.212;2022-07-29T00:20:18;99050.78;;;14.42;85.28
37078;BME280;22989;55.998;37.212;2022-07-29T00:22:44;99054.31;;;14.38;85.36
37078;BME280;22989;55.998;37.212;2022-07-29T00:25:11;99055.22;;;14.35;85.39
37078;BME280;22989;55.998;37.212;2022-07-29T00:27:37;99052.69;;;14.32;85.53
37078;BME280;22989;55.998;37.212;2022-07-29T00:30:04;99056.16;;;14.31;85.63
37078;BME280;22989;55.998;37.212;2022-07-29T00:32:31;99057.97;;;14.27;85.69
37078;BME280;22989;55.998;37.212;2022-07-29T00:34:56;99057.97;;;14.26;85.79
37078;BME280;22989;55.998;37.212;2022-07-29T00:37:41;99050.31;;;14.21;86.15
37078;BME280;22989;55.998;37.212;2022-07-29T00:40:07;99058.16;;;14.15;86.17
37078;BME280;22989;55.998;37.212;2022-07-29T00:42:47;99059.91;;;14.15;86.37
37078;BME280;22989;55.998;37.212;2022-07-29T00:45:14;99062.56;;;14.12;86.58
37078;BME280;22989;55.998;37.212;2022-07-29T00:47:40;99063.47;;;14.09;86.77
37078;BME280;22989;55.998;37.212;2022-07-29T00:50:07;99060.06;;;14.05;86.59
37078;BME280;22989;55.998;37.212;2022-07-29T00:52:35;99067.00;;;14.05;86.67
37078;BME280;22989;55.998;37.212;2022-07-29T00:55:07;99068.75;;;14.01;86.95
37078;BME280;22989;55.998;37.212;2022-07-29T00:57:34;99063.69;;;13.97;87.07
37078;BME280;22989;55.998;37.212;2022-07-29T01:00:00;99068.00;;;13.95;87.16
37078;BME280;22989;55.998;37.212;2022-07-29T01:02:25;99066.34;;;13.90;87.13
37078;BME280;22989;55.998;37.212;2022-07-29T01:04:52;99059.50;;;13.88;87.27
37078;BME280;22989;55.998;37.212;2022-07-29T01:07:18;99060.38;;;13.87;87.20
37078;BME280;22989;55.998;37.212;2022-07-29T01:09:45;99056.94;;;13.86;87.46
37078;BME280;22989;55.998;37.212;2022-07-29T01:12:20;99062.13;;;13.85;87.62
37078;BME280;22989;55.998;37.212;2022-07-29T01:14:48;99063.84;;;13.84;87.84
37078;BME280;22989;55.998;37.212;2022-07-29T01:29:05;99065.69;;;13.77;87.87
37078;BME280;22989;55.998;37.212;2022-07-29T01:31:58;99059.72;;;13.74;87.76
37078;BME280;22989;55.998;37.212;2022-07-29T01:34:45;99069.16;;;13.75;87.88
37078;BME280;22989;55.998;37.212;2022-07-29T01:37:28;99072.69;;;13.72;87.82
37078;BME280;22989;55.998;37.212;2022-07-29T01:39:56;99076.22;;;13.65;87.81
37078;BME280;22989;55.998;37.212;2022-07-29T01:42:34;99070.25;;;13.60;87.97
37078;BME280;22989;55.998;37.212;2022-07-29T01:45:32;99072.88;;;13.58;88.11
37078;BME280;22989;55.998;37.212;2022-07-29T01:48:18;99077.22;;;13.56;88.18
37078;BME280;22989;55.998;37.212;2022-07-29T01:50:48;99078.97;;;13.54;88.34
37078;BME280;22989;55.998;37.212;2022-07-29T01:53:29;99078.09;;;13.55;88.64
37078;BME280;22989;55.998;37.212;2022-07-29T01:55:57;99077.22;;;13.55;88.68
37078;BME280;22989;55.998;37.212;2022-07-29T01:58:25;99067.75;;;13.55;88.81
37078;BME280;22989;55.998;37.212;2022-07-29T02:00:56;99077.22;;;13.56;88.89
37078;BME280;22989;55.998;37.212;2022-07-29T02:03:23;99082.38;;;13.58;88.95
37078;BME280;22989;55.998;37.212;2022-07-29T02:05:50;99078.00;;;13.62;88.98
37078;BME280;22989;55.998;37.212;2022-07-29T02:08:18;99079.69;;;13.66;88.99
37078;BME280;22989;55.998;37.212;2022-07-29T02:10:47;99079.56;;;13.72;89.02
37078;BME280;22989;55.998;37.212;2022-07-29T02:13:15;99068.28;;;13.77;89.08
37078;BME280;22989;55.998;37.212;2022-07-29T02:15:43;99070.78;;;13.84;89.04
37078;BME280;22989;55.998;37.212;2022-07-29T02:18:16;99081.88;;;13.90;88.69
37078;BME280;22989;55.998;37.212;2022-07-29T02:20:44;99072.28;;;13.97;88.82
37078;BME280;22989;55.998;37.212;2022-07-29T02:23:12;99076.56;;;14.00;88.30
37078;BME280;22989;55.998;37.212;2022-07-29T02:25:41;99084.22;;;14.04;88.01
37078;BME280;22989;55.998;37.212;2022-07-29T02:28:08;99077.25;;;14.09;87.97
37078;BME280;22989;55.998;37.212;2022-07-29T02:30:40;99086.63;;;14.15;87.75
37078;BME280;22989;55.998;37.212;2022-07-29T02:33:08;99083.09;;;14.21;87.70
37078;BME280;22989;55.998;37.212;2022-07-29T02:35:35;99076.13;;;14.24;87.34
37078;BME280;22989;55.998;37.212;2022-07-29T02:38:03;99079.53;;;14.28;87.18
37078;BME280;22989;55.998;37.212;2022-07-29T02:40:48;99082.00;;;14.34;87.00
37078;BME280;22989;55.998;37.212;2022-07-29T02:43:17;99080.22;;;14.38;86.91
37078;BME280;22989;55.998;37.212;2022-07-29T02:45:44;99076.69;;;14.42;86.56
37078;BME280;22989;55.998;37.212;2022-07-29T02:48:14;99079.13;;;14.50;86.46
37078;BME280;22989;55.998;37.212;2022-07-29T02:50:49;99085.06;;;14.56;86.24
37078;BME280;22989;55.998;37.212;2022-07-29T02:53:18;99086.69;;;14.60;85.95
37078;BME280;22989;55.998;37.212;2022-07-29T02:55:56;99078.81;;;14.68;85.58
37078;BME280;22989;55.998;37.212;2022-07-29T03:00:48;99078.59;;;14.81;85.20
37078;BME280;22989;55.998;37.212;2022-07-29T03:03:18;99080.16;;;14.89;84.84
37078;BME280;22989;55.998;37.212;2022-07-29T03:05:44;99081.75;;;14.95;84.61
37078;BME280;22989;55.998;37.212;2022-07-29T03:08:11;99088.50;;;15.02;84.40
37078;BME280;22989;55.998;37.212;2022-07-29T03:10:43;99087.53;;;15.08;83.98
37078;BME280;22989;55.998;37.212;2022-07-29T03:13:09;99082.19;;;15.16;83.78
37078;BME280;22989;55.998;37.212;2022-07-29T03:15:36;99073.41;;;15.23;83.50
37078;BME280;22989;55.998;37.212;2022-07-29T03:18:02;99082.69;;;15.33;83.00
37078;BME280;22989;55.998;37.212;2022-07-29T03:20:29;99084.22;;;15.42;82.62
37078;BME280;22989;55.998;37.212;2022-07-29T03:22:55;99089.19;;;15.53;82.31
37078;BME280;22989;55.998;37.212;2022-07-29T03:25:20;99085.38;;;15.68;82.00
37078;BME280;22989;55.998;37.212;2022-07-29T03:27:47;99095.56;;;16.13;81.73
37078;BME280;22989;55.998;37.212;2022-07-29T03:30:14;99077.41;;;18.22;78.44
37078;BME280;22989;55.998;37.212;2022-07-29T03:32:40;99077.34;;;20.93;70.38
37078;BME280;22989;55.998;37.212;2022-07-29T03:35:07;99068.66;;;23.39;61.90
37078;BME280;22989;55.998;37.212;2022-07-29T03:37:33;99070.22;;;25.50;55.22
37078;BME280;22989;55.998;37.212;2022-07-29T03:40:02;99073.06;;;27.18;49.11
37078;BME280;22989;55.998;37.212;2022-07-29T03:42:31;99085.56;;;28.59;44.90
37078;BME280;22989;55.998;37.212;2022-07-29T03:45:07;99080.78;;;29.76;41.18
37078;BME280;22989;55.998;37.212;2022-07-29T03:47:35;99079.56;;;30.55;38.84
37078;BME280;22989;55.998;37.212;2022-07-29T03:50:06;99086.06;;;31.44;37.36
37078;BME280;22989;55.998;37.212;2022-07-29T03:52:32;99078.25;;;32.01;35.58
37078;BME280;22989;55.998;37.212;2022-07-29T03:54:59;99091.22;;;32.53;34.25
37078;BME280;22989;55.998;37.212;2022-07-29T03:57:27;99092.16;;;33.09;32.91
37078;BME280;22989;55.998;37.212;2022-07-29T03:59:54;99087.31;;;33.51;31.29
37078;BME280;22989;55.998;37.212;2022-07-29T04:02:20;99092.44;;;33.98;30.26
37078;BME280;22989;55.998;37.212;2022-07-29T04:04:46;99081.81;;;34.51;29.74
37078;BME280;22989;55.998;37.212;2022-07-29T04:07:13;99087.03;;;34.87;28.47
37078;BME280;22989;55.998;37.212;2022-07-29T04:09:39;99092.50;;;35.20;27.84
37078;BME280;22989;55.998;37.212;2022-07-29T04:12:05;99091.78;;;35.52;27.39
37078;BME280;22989;55.998;37.212;2022-07-29T04:14:32;99090.31;;;35.83;26.71
37078;BME280;22989;55.998;37.212;2022-07-29T04:16:59;99093.34;;;36.21;26.10
37078;BME280;22989;55.998;37.212;2022-07-29T04:19:25;99096.34;;;36.51;25.41
37078;BME280;22989;55.998;37.212;2022-07-29T04:21:51;99100.09;;;36.73;24.50
37078;BME280;22989;55.998;37.212;2022-07-29T04:24:16;99091.63;;;37.09;24.67
37078;BME280;22989;55.998;37.212;2022-07-29T04:26:42;99101.63;;;37.23;24.17
37078;BME280;22989;55.998;37.212;2022-07-29T04:29:08;99095.00;;;37.42;23.90
37078;BME280;22989;55.998;37.212;2022-07-29T04:31:35;99106.53;;;37.51;23.70
37078;BME280;22989;55.998;37.212;2022-07-29T04:34:00;99097.94;;;37.79;23.68
37078;BME280;22989;55.998;37.212;2022-07-29T04:36:26;99102.13;;;38.05;22.98
37078;BME280;22989;55.998;37.212;2022-07-29T04:38:52;99110.78;;;38.30;22.74
37078;BME280;22989;55.998;37.212;2022-07-29T04:41:17;99107.97;;;38.23;22.63
37078;BME280;22989;55.998;37.212;2022-07-29T04:43:43;99114.81;;;38.34;22.52
37078;BME280;22989;55.998;37.212;2022-07-29T04:46:08;99113.47;;;38.30;21.80
37078;BME280;22989;55.998;37.212;2022-07-29T04:48:34;99117.69;;;38.48;21.68
37078;BME280;22989;55.998;37.212;2022-07-29T04:51:00;99112.91;;;38.88;21.52
37078;BME280;22989;55.998;37.212;2022-07-29T04:53:26;99108.84;;;39.43;21.14
37078;BME280;22989;55.998;37.212;2022-07-29T04:55:52;99110.59;;;39.51;20.57
37078;BME280;22989;55.998;37.212;2022-07-29T04:58:17;99109.88;;;39.42;20.77
37078;BME280;22989;55.998;37.212;2022-07-29T05:00:43;99111.41;;;39.52;20.30
37078;BME280;22989;55.998;37.212;2022-07-29T05:03:09;99112.44;;;39.51;20.24
37078;BME280;22989;55.998;37.212;2022-07-29T05:05:35;99111.25;;;39.75;19.91
37078;BME280;22989;55.998;37.212;2022-07-29T05:08:01;99110.34;;;40.11;19.85
37078;BME280;22989;55.998;37.212;2022-07-29T05:10:26;99110.50;;;40.31;19.42
37078;BME280;22989;55.998;37.212;2022-07-29T05:12:52;99114.75;;;40.47;19.33
37078;BME280;22989;55.998;37.212;2022-07-29T05:15:18;99111.19;;;40.40;19.03
37078;BME280;22989;55.998;37.212;2022-07-29T05:17:44;99110.66;;;40.51;18.80
37078;BME280;22989;55.998;37.212;2022-07-29T05:20:10;99110.09;;;40.56;19.26
37078;BME280;22989;55.998;37.212;2022-07-29T05:22:35;99106.41;;;40.70;18.40
37078;BME280;22989;55.998;37.212;2022-07-29T05:25:01;99115.03;;;40.87;17.99
37078;BME280;22989;55.998;37.212;2022-07-29T05:27:27;99113.06;;;41.16;18.09
37078;BME280;22989;55.998;37.212;2022-07-29T05:29:53;99111.28;;;41.37;17.70
37078;BME280;22989;55.998;37.212;2022-07-29T05:32:19;99107.81;;;41.50;17.69
37078;BME280;22989;55.998;37.212;2022-07-29T05:34:45;99114.47;;;41.54;17.60
37078;BME280;22989;55.998;37.212;2022-07-29T05:37:11;99112.22;;;41.71;17.17
37078;BME280;22989;55.998;37.212;2022-07-29T05:39:39;99112.84;;;41.80;17.39
37078;BME280;22989;55.998;37.212;2022-07-29T05:42:11;99114.53;;;42.01;17.14
37078;BME280;22989;55.998;37.212;2022-07-29T05:44:38;99113.03;;;41.78;16.97
37078;BME280;22989;55.998;37.212;2022-07-29T05:47:03;99113.66;;;41.60;16.85
37078;BME280;22989;55.998;37.212;2022-07-29T05:49:29;99110.75;;;41.68;16.95
37078;BME280;22989;55.998;37.212;2022-07-29T05:51:55;99110.59;;;41.83;17.40
37078;BME280;22989;55.998;37.212;2022-07-29T05:54:21;99110.38;;;42.12;16.51
37078;BME280;22989;55.998;37.212;2022-07-29T05:56:46;99099.38;;;42.47;16.15
37078;BME280;22989;55.998;37.212;2022-07-29T05:59:12;99108.03;;;42.62;16.48
37078;BME280;22989;55.998;37.212;2022-07-29T06:01:38;99102.69;;;42.15;16.24
37078;BME280;22989;55.998;37.212;2022-07-29T06:04:05;99111.84;;;42.07;16.34
37078;BME280;22989;55.998;37.212;2022-07-29T06:06:33;99106.84;;;41.91;16.48
37078;BME280;22989;55.998;37.212;2022-07-29T06:08:59;99103.94;;;42.39;16.17
37078;BME280;22989;55.998;37.212;2022-07-29T06:11:25;99092.84;;;42.74;15.33
37078;BME280;22989;55.998;37.212;2022-07-29T06:13:51;99100.13;;;42.74;15.29
37078;BME280;22989;55.998;37.212;2022-07-29T06:16:17;99096.41;;;42.75;15.63
37078;BME280;22989;55.998;37.212;2022-07-29T06:18:42;99101.28;;;42.98;15.24
37078;BME280;22989;55.998;37.212;2022-07-29T06:21:09;99098.47;;;42.73;15.62
37078;BME280;22989;55.998;37.212;2022-07-29T06:23:38;99096.22;;;42.70;15.84
37078;BME280;22989;55.998;37.212;2022-07-29T06:26:04;99098.47;;;42.59;15.67
37078;BME280;22989;55.998;37.212;2022-07-29T06:28:30;99097.25;;;41.68;15.88
37078;BME280;22989;55.998;37.212;2022-07-29T06:30:56;99097.66;;;41.65;15.71
37078;BME280;22989;55.998;37.212;2022-07-29T06:33:22;99090.56;;;41.44;16.20
37078;BME280;22989;55.998;37.212;2022-07-29T06:35:48;99096.94;;;41.36;16.75
37078;BME280;22989;55.998;37.212;2022-07-29T06:38:14;99096.78;;;40.26;17.26
37078;BME280;22989;55.998;37.212;2022-07-29T06:40:46;99090.84;;;40.66;16.92
37078;BME280;22989;55.998;37.212;2022-07-29T06:43:33;99098.59;;;41.31;17.05
37078;BME280;22989;55.998;37.212;2022-07-29T06:46:04;99095.63;;;42.07;15.94
37078;BME280;22989;55.998;37.212;2022-07-29T06:48:31;99086.06;;;42.25;15.78
37078;BME280;22989;55.998;37.212;2022-07-29T06:50:57;99099.53;;;42.65;15.28
37078;BME280;22989;55.998;37.212;2022-07-29T06:53:23;99093.03;;;42.80;14.82
37078;BME280;22989;55.998;37.212;2022-07-29T06:55:49;99087.22;;;42.76;14.77
37078;BME280;22989;55.998;37.212;2022-07-29T06:58:15;99088.28;;;42.75;14.60
37078;BME280;22989;55.998;37.212;2022-07-29T07:00:49;99092.31;;;42.39;14.67
37078;BME280;22989;55.998;37.212;2022-07-29T07:03:16;99097.94;;;42.11;14.71
37078;BME280;22989;55.998;37.212;2022-07-29T07:05:42;99094.97;;;41.79;14.91
37078;BME280;22989;55.998;37.212;2022-07-29T07:08:08;99093.97;;;41.04;15.69
37078;BME280;22989;55.998;37.212;2022-07-29T07:10:34;99092.13;;;41.12;15.68
37078;BME280;22989;55.998;37.212;2022-07-29T07:13:00;99092.78;;;40.85;15.66
37078;BME280;22989;55.998;37.212;2022-07-29T07:15:27;99091.75;;;40.80;15.35
37078;BME280;22989;55.998;37.212;2022-07-29T07:17:53;99094.34;;;41.01;15.03
37078;BME280;22989;55.998;37.212;2022-07-29T07:20:19;99090.22;;;41.05;15.39
37078;BME280;22989;55.998;37.212;2022-07-29T07:22:45;99089.09;;;40.93;15.23
37078;BME280;22989;55.998;37.212;2022-07-29T07:25:11;99090.41;;;40.62;15.44
37078;BME280;22989;55.998;37.212;2022-07-29T07:27:38;99098.91;;;40.31;16.24
37078;BME280;22989;55.998;37.212;2022-07-29T07:30:05;99099.56;;;40.11;15.80
37078;BME280;22989;55.998;37.212;2022-07-29T07:32:34;99092.31;;;38.95;16.58
37078;BME280;22989;55.998;37.212;2022-07-29T07:35:01;99098.00;;;36.60;18.83
37078;BME280;22989;55.998;37.212;2022-07-29T07:37:27;99096.69;;;34.53;21.36
37078;BME280;22989;55.998;37.212;2022-07-29T07:39:53;99098.31;;;34.02;22.87
37078;BME280;22989;55.998;37.212;2022-07-29T07:42:19;99101.59;;;35.35;21.78
37078;BME280;22989;55.998;37.212;2022-07-29T07:44:45;99096.81;;;36.63;20.32
37078;BME280;22989;55.998;37.212;2022-07-29T07:47:12;99095.84;;;36.39;20.14
37078;BME280;22989;55.998;37.212;2022-07-29T07:49:38;99106.75;;;35.28;21.01
37078;BME280;22989;55.998;37.212;2022-07-29T07:52:04;99105.91;;;34.33;21.85
37078;BME280;22989;55.998;37.212;2022-07-29T07:54:30;99100.28;;;34.70;21.25
37078;BME280;22989;55.998;37.212;2022-07-29T07:56:56;99106.00;;;35.10;20.89
37078;BME280;22989;55.998;37.212;2022-07-29T07:59:22;99104.75;;;33.63;21.72
37078;BME280;22989;55.998;37.212;2022-07-29T08:01:49;99117.06;;;32.90;23.50
37078;BME280;22989;55.998;37.212;2022-07-29T08:04:15;99112.75;;;32.79;23.20
37078;BME280;22989;55.998;37.212;2022-07-29T08:06:41;99107.00;;;32.65;23.43
37078;BME280;22989;55.998;37.212;2022-07-29T08:09:07;99107.63;;;32.49;23.84
37078;BME280;22989;55.998;37.212;2022-07-29T08:11:33;99105.44;;;31.95;24.46
37078;BME280;22989;55.998;37.212;2022-07-29T08:13:59;99111.09;;;31.41;25.11
37078;BME280;22989;55.998;37.212;2022-07-29T08:16:27;99112.84;;;31.21;25.91
37078;BME280;22989;55.998;37.212;2022-07-29T08:18:53;99101.66;;;31.27;26.26
37078;BME280;22989;55.998;37.212;2022-07-29T08:21:23;99106.59;;;31.01;26.71
37078;BME280;22989;55.998;37.212;2022-07-29T08:23:50;99105.34;;;30.65;26.67
37078;BME280;22989;55.998;37.212;2022-07-29T08:26:21;99105.91;;;30.26;26.84
37078;BME280;22989;55.998;37.212;2022-07-29T08:28:48;99110.44;;;29.70;26.85
37078;BME280;22989;55.998;37.212;2022-07-29T08:31:17;99109.56;;;29.15;28.05
37078;BME280;22989;55.998;37.212;2022-07-29T08:33:43;99108.47;;;28.72;28.94
37078;BME280;22989;55.998;37.212;2022-07-29T08:36:09;99104.31;;;28.34;29.40
37078;BME280;22989;55.998;37.212;2022-07-29T08:38:35;99102.28;;;28.02;30.21
37078;BME280;22989;55.998;37.212;2022-07-29T08:41:01;99104.44;;;27.84;30.45
37078;BME280;22989;55.998;37.212;2022-07-29T08:43:30;99099.66;;;27.40;30.65
37078;BME280;22989;55.998;37.212;2022-07-29T08:45:57;99109.47;;;26.75;31.06
37078;BME280;22989;55.998;37.212;2022-07-29T08:48:23;99113.41;;;26.29;32.88
37078;BME280;22989;55.998;37.212;2022-07-29T08:50:54;99112.44;;;26.18;33.44
37078;BME280;22989;55.998;37.212;2022-07-29T08:53:21;99111.28;;;26.22;33.43
37078;BME280;22989;55.998;37.212;2022-07-29T08:55:49;99109.41;;;26.37;34.34
37078;BME280;22989;55.998;37.212;2022-07-29T08:58:16;99104.44;;;26.45;34.37
37078;BME280;22989;55.998;37.212;2022-07-29T09:00:49;99114.16;;;26.44;34.80
37078;BME280;22989;55.998;37.212;2022-07-29T09:03:19;99110.25;;;26.50;34.02
37078;BME280;22989;55.998;37.212;2022-07-29T09:05:46;99102.38;;;26.63;32.21
37078;BME280;22989;55.998;37.212;2022-07-29T09:08:16;99111.34;;;26.86;32.46
37078;BME280;22989;55.998;37.212;2022-07-29T09:10:42;99117.16;;;26.91;32.68
37078;BME280;22989;55.998;37.212;2022-07-29T09:13:08;99107.97;;;26.84;32.35
37078;BME280;22989;55.998;37.212;2022-07-29T09:15:34;99111.22;;;26.62;32.21
37078;BME280;22989;55.998;37.212;2022-07-29T09:18:00;99111.09;;;26.51;32.28
37078;BME280;22989;55.998;37.212;2022-07-29T09:20:27;99104.88;;;26.65;32.45
37078;BME280;22989;55.998;37.212;2022-07-29T09:23:13;99107.78;;;26.87;31.60
37078;BME280;22989;55.998;37.212;2022-07-29T09:25:41;99107.78;;;26.87;31.21
37078;BME280;22989;55.998;37.212;2022-07-29T09:28:11;99103.97;;;26.91;31.75
37078;BME280;22989;55.998;37.212;2022-07-29T09:30:57;99099.09;;;26.85;32.25
37078;BME280;22989;55.998;37.212;2022-07-29T09:33:31;99110.78;;;26.55;31.92
37078;BME280;22989;55.998;37.212;2022-07-29T09:36:06;99105.69;;;26.26;32.53
37078;BME280;22989;55.998;37.212;2022-07-29T09:38:34;99112.31;;;26.19;32.37
37078;BME280;22989;55.998;37.212;2022-07-29T09:41:02;99115.28;;;26.27;32.50
37078;BME280;22989;55.998;37.212;2022-07-29T09:43:28;99110.34;;;26.23;32.42
37078;BME280;22989;55.998;37.212;2022-07-29T09:45:54;99111.13;;;26.10;32.67
37078;BME280;22989;55.998;37.212;2022-07-29T09:48:24;99107.00;;;25.79;33.25
37078;BME280;22989;55.998;37.212;2022-07-29T09:50:51;99105.88;;;25.56;33.70
37078;BME280;22989;55.998;37.212;2022-07-29T09:53:44;99113.44;;;25.48;33.36
37078;BME280;22989;55.998;37.212;2022-07-29T09:56:09;99116.41;;;25.56;33.64
37078;BME280;22989;55.998;37.212;2022-07-29T09:58:36;99112.41;;;25.90;33.81
37078;BME280;22989;55.998;37.212;2022-07-29T10:01:01;99113.78;;;26.10;34.02
37078;BME280;22989;55.998;37.212;2022-07-29T10:03:27;99117.44;;;26.08;34.06
37078;BME280;22989;55.998;37.212;2022-07-29T10:06:08;99115.31;;;26.00;34.47
37078;BME280;22989;55.998;37.212;2022-07-29T10:08:36;99110.78;;;26.02;33.83
37078;BME280;22989;55.998;37.212;2022-07-29T10:11:10;99112.50;;;26.03;33.95
37078;BME280;22989;55.998;37.212;2022-07-29T10:13:37;99111.28;;;25.94;33.64
37078;BME280;22989;55.998;37.212;2022-07-29T10:16:04;99114.31;;;26.03;33.63
37078;BME280;22989;55.998;37.212;2022-07-29T10:18:29;99111.91;;;26.12;33.34
37078;BME280;22989;55.998;37.212;2022-07-29T10:20:56;99105.69;;;26.26;32.95
37078;BME280;22989;55.998;37.212;2022-07-29T10:23:23;99118.31;;;26.21;33.10
37078;BME280;22989;55.998;37.212;2022-07-29T10:25:49;99118.88;;;26.13;32.96
37078;BME280;22989;55.998;37.212;2022-07-29T10:28:15;99115.06;;;26.18;33.30
37078;BME280;22989;55.998;37.212;2022-07-29T10:30:41;99122.97;;;26.18;33.66
37078;BME280;22989;55.998;37.212;2022-07-29T10:33:27;99110.84;;;26.15;33.95
37078;BME280;22989;55.998;37.212;2022-07-29T10:36:27;99115.34;;;26.13;33.24
37078;BME280;22989;55.998;37.212;2022-07-29T10:44:39;99117.16;;;26.12;34.13
37078;BME280;22989;55.998;37.212;2022-07-29T10:47:06;99111.94;;;26.25;33.72
37078;BME280;22989;55.998;37.212;2022-07-29T10:49:32;99108.06;;;26.04;34.40
37078;BME280;22989;55.998;37.212;2022-07-29T10:52:07;99113.28;;;25.91;35.44
37078;BME280;22989;55.998;37.212;2022-07-29T10:54:44;99107.25;;;25.61;35.53
37078;BME280;22989;55.998;37.212;2022-07-29T10:57:21;99107.84;;;25.52;35.51
37078;BME280;22989;55.998;37.212;2022-07-29T10:59:50;99104.25;;;25.68;35.73
37078;BME280;22989;55.998;37.212;2022-07-29T11:07:38;99111.72;;;25.46;35.71
37078;BME280;22989;55.998;37.212;2022-07-29T11:15:12;99113.53;;;25.03;36.39
37078;BME280;22989;55.998;37.212;2022-07-29T11:20:41;99118.31;;;25.39;35.92
37078;BME280;22989;55.998;37.212;2022-07-29T11:23:36;99107.25;;;25.61;35.62
37078;BME280;22989;55.998;37.212;2022-07-29T11:28:50;99096.63;;;25.63;34.69
37078;BME280;22989;55.998;37.212;2022-07-29T11:31:46;99095.78;;;25.62;34.94
37078;BME280;22989;55.998;37.212;2022-07-29T11:34:29;99102.53;;;25.67;34.83
37078;BME280;22989;55.998;37.212;2022-07-29T11:45:05;99102.94;;;25.88;34.99
37078;BME280;22989;55.998;37.212;2022-07-29T11:47:38;99106.81;;;25.82;34.66
37078;BME280;22989;55.998;37.212;2022-07-29T11:50:11;99103.84;;;25.74;34.51
37078;BME280;22989;55.998;37.212;2022-07-29T11:55:10;99111.00;;;25.30;34.94
37078;BME280;22989;55.998;37.212;2022-07-29T11:57:36;99102.81;;;25.06;35.84
37078;BME280;22989;55.998;37.212;2022-07-29T12:00:07;99109.88;;;25.05;36.30
37078;BME280;22989;55.998;37.212;2022-07-29T12:02:43;99101.56;;;25.40;35.67
37078;BME280;22989;55.998;37.212;2022-07-29T12:05:10;99096.47;;;25.79;34.90
37078;BME280;22989;55.998;37.212;2022-07-29T12:07:39;99093.13;;;25.90;35.04
37078;BME280;22989;55.998;37.212;2022-07-29T12:10:06;99090.72;;;26.00;35.04
37078;BME280;22989;55.998;37.212;2022-07-29T12:12:33;99093.25;;;25.88;34.93
37078;BME280;22989;55.998;37.212;2022-07-29T12:17:38;99083.31;;;25.79;34.84
37078;BME280;22989;55.998;37.212;2022-07-29T12:20:05;99090.72;;;25.87;35.07
37078;BME280;22989;55.998;37.212;2022-07-29T12:22:34;99086.38;;;25.86;34.37
37078;BME280;22989;55.998;37.212;2022-07-29T12:25:13;99089.13;;;25.84;34.37
37078;BME280;22989;55.998;37.212;2022-07-29T12:27:41;99086.69;;;25.81;34.56
37078;BME280;22989;55.998;37.212;2022-07-29T12:30:14;99081.88;;;25.88;34.95
37078;BME280;22989;55.998;37.212;2022-07-29T12:32:47;99081.22;;;25.97;34.73
37078;BME280;22989;55.998;37.212;2022-07-29T12:35:16;99083.81;;;26.11;34.13
37078;BME280;22989;55.998;37.212;2022-07-29T12:37:46;99078.38;;;26.27;34.02
37078;BME280;22989;55.998;37.212;2022-07-29T12:40:17;99076.34;;;26.18;33.82
37078;BME280;22989;55.998;37.212;2022-07-29T12:45:31;99077.84;;;26.09;33.60
37078;BME280;22989;55.998;37.212;2022-07-29T12:47:57;99077.06;;;26.07;33.83
37078;BME280;22989;55.998;37.212;2022-07-29T12:50:23;99078.06;;;26.19;33.11
37078;BME280;22989;55.998;37.212;2022-07-29T12:52:50;99079.63;;;26.35;33.87
37078;BME280;22989;55.998;37.212;2022-07-29T12:55:37;99077.00;;;26.35;33.04
37078;BME280;22989;55.998;37.212;2022-07-29T12:58:01;99076.50;;;26.29;33.36
37078;BME280;22989;55.998;37.212;2022-07-29T13:00:27;99075.63;;;26.29;33.13
37078;BME280;22989;55.998;37.212;2022-07-29T13:02:58;99077.66;;;26.25;33.19
37078;BME280;22989;55.998;37.212;2022-07-29T13:05:38;99080.91;;;26.29;33.31
37078;BME280;22989;55.998;37.212;2022-07-29T13:08:15;99073.75;;;26.31;33.28
37078;BME280;22989;55.998;37.212;2022-07-29T13:10:41;99078.06;;;26.19;33.13
37078;BME280;22989;55.998;37.212;2022-07-29T13:13:12;99077.84;;;26.09;33.55
37078;BME280;22989;55.998;37.212;2022-07-29T13:15:42;99074.16;;;26.12;33.72
37078;BME280;22989;55.998;37.212;2022-07-29T13:20:52;99081.13;;;26.26;32.88
37078;BME280;22989;55.998;37.212;2022-07-29T13:23:18;99069.41;;;26.30;33.34
37078;BME280;22989;55.998;37.212;2022-07-29T13:25:44;99065.94;;;26.29;33.56
37078;BME280;22989;55.998;37.212;2022-07-29T13:28:10;99070.78;;;26.23;33.83
37078;BME280;22989;55.998;37.212;2022-07-29T13:30:37;99078.69;;;26.23;33.66
37078;BME280;22989;55.998;37.212;2022-07-29T13:33:03;99073.75;;;26.31;33.19
37078;BME280;22989;55.998;37.212;2022-07-29T13:35:28;99078.28;;;26.42;32.95
37078;BME280;22989;55.998;37.212;2022-07-29T13:37:55;99079.44;;;26.63;33.08
37078;BME280;22989;55.998;37.212;2022-07-29T13:40:21;99080.31;;;26.51;32.63
37078;BME280;22989;55.998;37.212;2022-07-29T13:42:47;99089.44;;;26.45;33.09
37078;BME280;22989;55.998;37.212;2022-07-29T13:45:13;99086.41;;;26.39;33.31
37078;BME280;22989;55.998;37.212;2022-07-29T13:47:39;99084.69;;;26.25;33.38
37078;BME280;22989;55.998;37.212;2022-07-29T13:50:06;99087.66;;;26.33;33.52
37078;BME280;22989;55.998;37.212;2022-07-29T13:52:33;99081.97;;;26.65;33.22